createdAt,value
2019-04-10T00:00:35.108Z,28.53
2019-04-10T00:03:06.343Z,28.27
2019-04-10T00:05:38.199Z,29.20
2019-04-10T00:08:10.195Z,30.27
2019-04-10T00:10:42.433Z,29.03
2019-04-10T00:13:12.939Z,23.60
2019-04-10T00:15:43.468Z,28.30
2019-04-10T00:18:15.903Z,28.50
2019-04-10T00:20:46.962Z,28.63
2019-04-10T00:23:17.508Z,31.30
2019-04-10T00:25:48.786Z,36.03
2019-04-10T00:28:19.464Z,28.83
2019-04-10T00:30:49.863Z,25.77
2019-04-10T00:33:20.803Z,22.17
2019-04-10T00:35:51.932Z,22.60
2019-04-10T00:38:24.052Z,29.47
2019-04-10T00:40:55.468Z,27.87
2019-04-10T00:43:26.703Z,26.27
2019-04-10T00:45:58.352Z,29.43
2019-04-10T00:48:28.783Z,25.00
2019-04-10T00:50:59.293Z,25.37
2019-04-10T00:53:29.801Z,28.47
2019-04-10T00:56:00.197Z,28.20
2019-04-10T00:58:30.651Z,27.53
2019-04-10T01:01:01.415Z,30.03
2019-04-10T01:03:44.314Z,25.13
2019-04-10T01:06:15.952Z,26.53
2019-04-10T01:08:46.460Z,30.00
2019-04-10T01:11:17.142Z,30.63
2019-04-10T01:13:47.590Z,28.30
2019-04-10T01:16:18.161Z,26.30
2019-04-10T01:18:48.601Z,30.70
2019-04-10T01:21:19.928Z,37.10
2019-04-10T01:23:50.406Z,21.80
2019-04-10T01:26:21.161Z,22.47
2019-04-10T01:28:51.710Z,29.07
2019-04-10T01:31:23.255Z,27.30
2019-04-10T01:33:54.764Z,28.27
2019-04-10T01:36:25.271Z,27.77
2019-04-10T01:38:55.777Z,33.90
2019-04-10T01:41:26.180Z,28.03
2019-04-10T01:43:57.304Z,24.87
2019-04-10T01:46:28.485Z,27.83
2019-04-10T01:48:59.970Z,25.30
2019-04-10T01:51:30.984Z,24.37
2019-04-10T01:54:02.595Z,21.83
2019-04-10T01:56:35.090Z,29.37
2019-04-10T01:59:05.625Z,26.70
2019-04-10T02:01:41.427Z,29.60
2019-04-10T02:04:11.931Z,26.50
2019-04-10T02:06:43.222Z,24.83
2019-04-10T02:09:15.030Z,27.17
2019-04-10T02:11:46.057Z,24.57
2019-04-10T02:14:16.594Z,30.63
2019-04-10T02:16:47.947Z,23.00
2019-04-10T02:19:18.478Z,24.20
2019-04-10T02:21:49.762Z,24.27
2019-04-10T02:24:20.263Z,24.27
2019-04-10T02:26:51.968Z,27.10
2019-04-10T02:29:22.443Z,25.90
2019-04-10T02:31:54.934Z,24.73
2019-04-10T02:34:25.077Z,23.47
2019-04-10T02:36:55.586Z,28.40
2019-04-10T02:39:34.097Z,29.87
2019-04-10T02:41:58.433Z,23.10
2019-04-10T02:44:30.607Z,24.67
2019-04-10T02:47:02.140Z,25.90
2019-04-10T02:49:32.764Z,23.80
2019-04-10T02:52:04.077Z,29.87
2019-04-10T02:54:35.742Z,21.07
2019-04-10T02:57:07.438Z,22.53
2019-04-10T02:59:39.631Z,26.87
2019-04-10T03:02:11.646Z,24.13
2019-04-10T03:04:44.403Z,23.53
2019-04-10T03:07:15.898Z,28.17
2019-04-10T03:10:00.866Z,25.20
2019-04-10T03:12:19.718Z,24.37
2019-04-10T03:14:52.009Z,27.60
2019-04-10T03:17:23.954Z,28.27
2019-04-10T03:19:54.448Z,24.83
2019-04-10T03:22:25.008Z,23.73
2019-04-10T03:24:56.839Z,26.17
2019-04-10T03:27:28.104Z,34.13
2019-04-10T03:29:58.605Z,26.07
2019-04-10T03:32:43.464Z,25.30
2019-04-10T03:35:16.718Z,30.03
2019-04-10T03:37:47.229Z,34.63
2019-04-10T03:40:17.644Z,43.03
2019-04-10T03:42:48.143Z,68.47
2019-04-10T03:45:18.539Z,40.73
2019-04-10T03:47:49.425Z,35.10
2019-04-10T03:50:20.884Z,32.37
2019-04-10T03:52:51.694Z,40.83
2019-04-10T03:55:22.986Z,66.43
2019-04-10T03:57:53.499Z,127.13
2019-04-10T04:00:23.895Z,50.13
2019-04-10T04:02:54.403Z,54.37
2019-04-10T04:05:24.792Z,50.10
2019-04-10T04:07:59.152Z,39.30
2019-04-10T04:10:30.776Z,37.00
2019-04-10T04:13:01.567Z,86.13
2019-04-10T04:15:32.016Z,52.23
2019-04-10T04:18:02.703Z,46.80
2019-04-10T04:20:33.739Z,42.90
2019-04-10T04:23:05.467Z,33.67
2019-04-10T04:25:36.596Z,31.47
2019-04-10T04:28:07.124Z,34.87
2019-04-10T04:30:38.907Z,36.80
2019-04-10T04:33:10.815Z,109.27
2019-04-10T04:35:41.285Z,103.17
2019-04-10T04:38:11.724Z,48.40
2019-04-10T04:40:42.124Z,49.33
2019-04-10T04:43:12.567Z,46.63
2019-04-10T04:45:42.956Z,68.97
2019-04-10T04:48:14.526Z,64.00
2019-04-10T04:50:45.728Z,40.23
2019-04-10T04:53:16.350Z,35.27
2019-04-10T04:55:47.045Z,85.40
2019-04-10T04:58:18.089Z,54.40
2019-04-10T05:00:48.560Z,60.93
2019-04-10T05:03:18.999Z,53.27
2019-04-10T05:05:49.942Z,119.97
2019-04-10T05:08:20.510Z,127.13
2019-04-10T05:10:50.915Z,157.70
2019-04-10T05:13:22.240Z,76.97
2019-04-10T05:15:53.365Z,50.17
2019-04-10T05:18:23.847Z,53.90
2019-04-10T05:20:54.731Z,46.37
2019-04-10T05:23:25.231Z,82.73
2019-04-10T05:25:56.124Z,60.10
2019-04-10T05:28:26.725Z,44.93
2019-04-10T05:30:57.177Z,59.23
2019-04-10T05:33:27.618Z,68.83
2019-04-10T05:35:59.191Z,156.97
2019-04-10T05:38:29.732Z,177.53
2019-04-10T05:41:01.260Z,105.80
2019-04-10T05:43:32.798Z,110.60
2019-04-10T05:46:03.184Z,88.20
2019-04-10T05:48:33.620Z,63.47
2019-04-10T05:51:07.095Z,83.10
2019-04-10T05:53:36.549Z,66.90
2019-04-10T05:56:07.078Z,92.47
2019-04-10T05:58:38.631Z,92.00
2019-04-10T06:01:09.488Z,49.77
2019-04-10T06:03:40.831Z,44.33
2019-04-10T06:06:12.424Z,45.43
2019-04-10T06:08:43.568Z,91.10
2019-04-10T06:11:15.090Z,54.73
2019-04-10T06:13:45.651Z,61.20
2019-04-10T06:16:17.240Z,117.67
2019-04-10T06:18:47.876Z,88.67
2019-04-10T06:21:18.840Z,45.73
2019-04-10T06:23:49.867Z,44.70
2019-04-10T06:26:21.749Z,41.83
2019-04-10T06:28:52.637Z,43.53
2019-04-10T06:31:23.129Z,47.60
2019-04-10T06:33:53.549Z,44.87
2019-04-10T06:36:24.997Z,41.80
2019-04-10T06:38:55.581Z,55.37
2019-04-10T06:41:26.392Z,85.23
2019-04-10T06:43:57.566Z,121.73
2019-04-10T06:46:28.486Z,54.40
2019-04-10T06:48:59.053Z,62.73
2019-04-10T06:51:29.440Z,54.23
2019-04-10T06:54:05.440Z,51.03
2019-04-10T06:56:33.281Z,42.33
2019-04-10T06:59:04.600Z,45.10
2019-04-10T07:01:44.428Z,41.43
2019-04-10T07:04:08.416Z,45.57
2019-04-10T07:06:52.860Z,47.00
2019-04-10T07:09:15.813Z,50.13
2019-04-10T07:11:54.441Z,89.97
2019-04-10T07:14:20.498Z,38.37
2019-04-10T07:16:51.035Z,45.23
2019-04-10T07:19:21.534Z,35.27
2019-04-10T07:21:51.959Z,32.80
2019-04-10T07:24:22.901Z,26.83
2019-04-10T07:26:53.427Z,28.40
2019-04-10T07:29:26.741Z,26.13
2019-04-10T07:31:58.322Z,24.63
2019-04-10T07:34:30.045Z,27.57
2019-04-10T07:37:00.630Z,23.70
2019-04-10T07:39:33.471Z,21.13
2019-04-10T07:42:04.154Z,22.50
2019-04-10T07:44:34.608Z,20.00
2019-04-10T07:47:05.097Z,25.00
2019-04-10T07:49:38.001Z,16.77
2019-04-10T07:52:08.325Z,21.57
2019-04-10T07:54:41.662Z,23.40
2019-04-10T07:57:11.824Z,17.40
2019-04-10T07:59:43.136Z,17.60
2019-04-10T08:02:14.259Z,15.73
2019-04-10T08:04:45.338Z,17.47
2019-04-10T08:07:28.582Z,15.93
2019-04-10T08:09:48.196Z,19.70
2019-04-10T08:12:19.019Z,17.17
2019-04-10T08:14:49.515Z,17.80
2019-04-10T08:17:20.112Z,20.63
2019-04-10T08:19:50.944Z,17.50
2019-04-10T08:22:22.142Z,23.37
2019-04-10T08:24:53.524Z,15.90
2019-04-10T08:27:23.980Z,14.73
2019-04-10T08:29:54.797Z,28.20
2019-04-10T08:32:25.718Z,18.30
2019-04-10T08:34:56.205Z,19.17
2019-04-10T08:37:26.723Z,16.77
2019-04-10T08:39:57.128Z,16.63
2019-04-10T08:42:27.898Z,19.63
2019-04-10T08:45:00.714Z,19.30
2019-04-10T08:47:31.452Z,20.93
2019-04-10T08:50:01.954Z,18.00
2019-04-10T08:52:37.036Z,18.13
2019-04-10T08:55:08.481Z,16.53
2019-04-10T08:57:39.000Z,19.43
2019-04-10T09:00:10.565Z,18.17
2019-04-10T09:02:42.240Z,29.10
2019-04-10T09:05:13.272Z,20.67
2019-04-10T09:07:44.806Z,20.53
2019-04-10T09:10:16.440Z,33.40
2019-04-10T09:12:47.246Z,17.17
2019-04-10T09:15:18.147Z,19.40
2019-04-10T09:17:49.300Z,22.07
2019-04-10T09:20:19.789Z,18.70
2019-04-10T09:23:14.522Z,19.30
2019-04-10T09:25:22.918Z,18.60
2019-04-10T09:27:54.434Z,22.67
2019-04-10T09:30:26.926Z,19.23
2019-04-10T09:32:58.962Z,24.13
2019-04-10T09:35:30.837Z,19.73
2019-04-10T09:38:02.155Z,28.13
2019-04-10T09:40:32.673Z,21.50
2019-04-10T09:43:03.096Z,19.63
2019-04-10T09:45:33.474Z,22.47
2019-04-10T09:48:06.469Z,22.10
2019-04-10T09:50:36.941Z,25.17
2019-04-10T09:53:08.458Z,21.53
2019-04-10T09:55:39.042Z,19.47
2019-04-10T09:58:10.510Z,22.77
2019-04-10T10:00:40.897Z,24.17
2019-04-10T10:03:11.852Z,26.03
2019-04-10T10:05:44.516Z,28.83
2019-04-10T10:08:16.208Z,30.27
2019-04-10T10:10:47.206Z,30.90
2019-04-10T10:13:17.775Z,31.57
2019-04-10T10:15:48.158Z,25.77
2019-04-10T10:18:19.321Z,28.60
2019-04-10T10:20:50.233Z,29.23
2019-04-10T10:23:23.189Z,29.13
2019-04-10T10:25:55.422Z,22.97
2019-04-10T10:28:27.087Z,21.10
2019-04-10T10:30:57.910Z,21.70
2019-04-10T10:33:28.365Z,33.47
2019-04-10T10:35:59.798Z,24.43
2019-04-10T10:38:31.262Z,23.37
2019-04-10T10:41:02.932Z,20.90
2019-04-10T10:43:34.271Z,17.93
2019-04-10T10:46:04.776Z,16.80
2019-04-10T10:48:35.835Z,21.33
2019-04-10T10:51:06.705Z,14.30
2019-04-10T10:53:37.202Z,13.67
2019-04-10T10:56:07.791Z,16.07
2019-04-10T10:58:38.231Z,17.37
2019-04-10T11:01:08.738Z,16.27
2019-04-10T11:03:40.389Z,15.87
2019-04-10T11:06:10.977Z,18.63
2019-04-10T11:08:41.749Z,24.17
2019-04-10T11:11:12.748Z,17.33
2019-04-10T11:13:43.275Z,13.70
2019-04-10T11:16:14.443Z,16.80
2019-04-10T11:18:46.872Z,15.07
2019-04-10T11:21:18.258Z,15.97
2019-04-10T11:23:50.812Z,16.77
2019-04-10T11:26:24.239Z,19.70
2019-04-10T11:28:55.712Z,16.10
2019-04-10T11:31:26.237Z,16.77
2019-04-10T11:33:57.155Z,22.40
2019-04-10T11:36:29.895Z,23.43
2019-04-10T11:39:11.913Z,19.57
2019-04-10T11:41:34.811Z,17.03
2019-04-10T11:44:07.686Z,17.97
2019-04-10T11:46:38.692Z,17.77
2019-04-10T11:49:11.057Z,23.80
2019-04-10T11:51:44.213Z,16.23
2019-04-10T11:54:15.293Z,17.47
2019-04-10T11:56:48.700Z,17.23
2019-04-10T11:59:21.573Z,12.90
2019-04-10T12:01:53.092Z,16.47
2019-04-10T12:04:23.226Z,17.20
2019-04-10T12:06:55.881Z,11.93
2019-04-10T12:10:16.996Z,17.73
2019-04-10T12:11:59.376Z,17.03
2019-04-10T12:14:30.026Z,21.30
2019-04-10T12:17:01.345Z,14.87
2019-04-10T12:19:32.854Z,11.10
2019-04-10T12:22:03.520Z,10.30
2019-04-10T12:24:34.203Z,10.10
2019-04-10T12:27:04.853Z,19.97
2019-04-10T12:29:35.278Z,22.33
2019-04-10T12:32:06.237Z,10.47
2019-04-10T12:34:36.723Z,13.33
2019-04-10T12:37:07.176Z,12.27
2019-04-10T12:39:37.612Z,12.63
2019-04-10T12:42:08.001Z,8.87
2019-04-10T12:44:39.489Z,9.37
2019-04-10T12:47:10.050Z,11.73
2019-04-10T12:49:41.463Z,15.73
2019-04-10T12:52:11.931Z,10.83
2019-04-10T12:54:42.736Z,20.70
2019-04-10T12:57:13.147Z,13.67
2019-04-10T12:59:43.726Z,11.77
2019-04-10T13:02:14.725Z,28.60
2019-04-10T13:04:45.290Z,13.80
2019-04-10T13:07:16.656Z,15.23
2019-04-10T13:09:47.085Z,12.13
2019-04-10T13:12:17.553Z,19.87
2019-04-10T13:14:48.594Z,14.67
2019-04-10T13:17:20.260Z,13.90
2019-04-10T13:19:51.444Z,13.03
2019-04-10T13:22:22.224Z,18.83
2019-04-10T13:24:52.745Z,20.70
2019-04-10T13:27:23.206Z,14.30
2019-04-10T13:29:54.383Z,21.90
2019-04-10T13:32:25.557Z,19.40
2019-04-10T13:34:56.022Z,15.77
2019-04-10T13:37:26.398Z,16.70
2019-04-10T13:39:57.282Z,29.50
2019-04-10T13:42:27.782Z,18.67
2019-04-10T13:44:59.213Z,21.90
2019-04-10T13:47:30.493Z,27.50
2019-04-10T13:50:02.379Z,13.60
2019-04-10T13:52:34.266Z,16.13
2019-04-10T13:55:08.609Z,14.20
2019-04-10T13:57:39.502Z,15.87
2019-04-10T14:00:21.668Z,17.83
2019-04-10T14:02:52.175Z,20.70
2019-04-10T14:05:24.114Z,19.20
2019-04-10T14:07:54.610Z,14.83
2019-04-10T14:10:25.109Z,16.13
2019-04-10T14:12:56.847Z,18.73
2019-04-10T14:15:30.188Z,19.77
2019-04-10T14:18:03.468Z,15.13
2019-04-10T14:20:35.308Z,15.47
2019-04-10T14:23:10.685Z,20.97
2019-04-10T14:25:42.927Z,17.70
2019-04-10T14:28:14.896Z,12.43
2019-04-10T14:30:47.325Z,16.30
2019-04-10T14:33:19.051Z,17.27
2019-04-10T14:35:49.558Z,22.80
2019-04-10T14:38:21.060Z,20.53
2019-04-10T14:40:51.608Z,19.37
2019-04-10T14:43:22.901Z,17.50
2019-04-10T14:45:54.063Z,15.73
2019-04-10T14:48:24.685Z,17.93
2019-04-10T14:50:55.128Z,16.87
2019-04-10T14:53:26.782Z,12.93
2019-04-10T14:55:57.743Z,17.87
2019-04-10T14:58:32.336Z,18.87
2019-04-10T15:01:02.662Z,13.67
2019-04-10T15:03:34.245Z,14.40
2019-04-10T15:06:05.041Z,16.03
2019-04-10T15:08:35.652Z,17.10
2019-04-10T15:11:07.347Z,14.37
2019-04-10T15:13:38.102Z,18.30
2019-04-10T15:16:09.811Z,17.13
2019-04-10T15:18:40.340Z,21.87
2019-04-10T15:21:10.721Z,18.30
2019-04-10T15:23:41.222Z,31.17
2019-04-10T15:26:11.726Z,41.03
2019-04-10T15:28:42.169Z,30.03
2019-04-10T15:31:12.625Z,16.93
2019-04-10T15:33:43.054Z,24.20
2019-04-10T15:36:13.449Z,21.80
2019-04-10T15:38:44.357Z,21.50
2019-04-10T15:41:15.006Z,25.73
2019-04-10T15:43:45.554Z,23.77
2019-04-10T15:46:17.152Z,20.57
2019-04-10T15:48:48.816Z,17.53
2019-04-10T15:51:22.445Z,17.87
2019-04-10T15:53:53.551Z,16.30
2019-04-10T15:56:23.959Z,15.27
2019-04-10T15:58:55.478Z,20.10
2019-04-10T16:01:28.354Z,17.00
2019-04-10T16:03:58.977Z,25.47
2019-04-10T16:06:29.591Z,22.10
2019-04-10T16:09:00.922Z,17.87
2019-04-10T16:11:43.846Z,16.27
2019-04-10T16:14:22.010Z,19.90
2019-04-10T16:16:59.841Z,15.50
2019-04-10T16:19:35.052Z,17.33
2019-04-10T16:22:07.308Z,12.97
2019-04-10T16:24:38.827Z,13.20
2019-04-10T16:27:11.849Z,21.77
2019-04-10T16:29:42.841Z,24.97
2019-04-10T16:32:14.691Z,20.97
2019-04-10T16:34:45.326Z,18.63
2019-04-10T16:37:16.733Z,23.10
2019-04-10T16:39:57.609Z,24.13
2019-04-10T16:42:20.283Z,25.93
2019-04-10T16:44:51.247Z,16.97
2019-04-10T16:47:22.026Z,20.70
2019-04-10T16:49:53.124Z,20.07
2019-04-10T16:52:25.023Z,24.27
2019-04-10T16:54:55.719Z,24.70
2019-04-10T16:57:26.835Z,21.67
2019-04-10T16:59:57.895Z,31.20
2019-04-10T17:02:28.865Z,30.07
2019-04-10T17:05:00.438Z,24.57
2019-04-10T17:07:31.134Z,22.20
2019-04-10T17:10:12.570Z,30.13
2019-04-10T17:12:33.833Z,29.87
2019-04-10T17:15:08.149Z,27.00
2019-04-10T17:17:38.983Z,31.40
2019-04-10T17:20:09.712Z,35.13
2019-04-10T17:22:45.283Z,26.23
2019-04-10T17:25:12.354Z,26.07
2019-04-10T17:27:43.783Z,29.70
2019-04-10T17:30:17.803Z,31.97
2019-04-10T17:32:48.675Z,30.83
2019-04-10T17:35:19.425Z,37.80
2019-04-10T17:37:50.082Z,48.77
2019-04-10T17:40:30.100Z,33.40
2019-04-10T17:42:53.096Z,30.17
2019-04-10T17:45:25.502Z,31.03
2019-04-10T17:47:56.510Z,28.77
2019-04-10T17:50:30.083Z,27.67
2019-04-10T17:53:00.983Z,32.83
2019-04-10T17:55:31.766Z,28.53
2019-04-10T17:58:03.259Z,32.03
2019-04-10T18:00:39.726Z,37.23
2019-04-10T18:03:10.961Z,41.33
2019-04-10T18:05:42.501Z,51.77
2019-04-10T18:08:13.118Z,43.00
2019-04-10T18:10:49.403Z,35.73
2019-04-10T18:13:15.768Z,35.70
2019-04-10T18:15:46.373Z,44.67
2019-04-10T18:18:17.758Z,37.10
2019-04-10T18:20:49.523Z,38.20
2019-04-10T18:23:20.087Z,31.80
2019-04-10T18:25:50.480Z,31.07
2019-04-10T18:28:21.360Z,30.70
2019-04-10T18:30:52.307Z,39.00
2019-04-10T18:33:22.893Z,42.17
2019-04-10T18:35:53.291Z,56.27
2019-04-10T18:38:23.814Z,82.27
2019-04-10T18:41:00.540Z,125.33
2019-04-10T18:43:27.018Z,130.47
2019-04-10T18:46:10.239Z,101.50
2019-04-10T18:48:30.404Z,85.40
2019-04-10T18:51:01.879Z,71.27
2019-04-10T18:53:33.281Z,70.07
2019-04-10T18:56:05.000Z,69.80
2019-04-10T18:58:45.941Z,70.73
2019-04-10T19:01:34.829Z,65.23
2019-04-10T19:04:07.768Z,52.67
2019-04-10T19:06:46.629Z,54.67
2019-04-10T19:09:24.606Z,48.23
2019-04-10T19:11:51.056Z,45.67
2019-04-10T19:14:22.570Z,41.87
2019-04-10T19:16:53.053Z,52.37
2019-04-10T19:19:23.970Z,39.80
2019-04-10T19:21:55.899Z,46.23
2019-04-10T19:24:32.510Z,43.63
2019-04-10T19:27:04.888Z,63.90
2019-04-10T19:29:38.191Z,60.50
2019-04-10T19:32:10.740Z,93.70
2019-04-10T19:34:41.348Z,95.33
2019-04-10T19:37:12.333Z,76.27
2019-04-10T19:39:43.167Z,93.17
2019-04-10T19:42:15.395Z,88.57
2019-04-10T19:44:45.939Z,75.77
2019-04-10T19:47:17.916Z,75.43
2019-04-10T19:49:48.769Z,60.57
2019-04-10T19:52:20.217Z,74.13
2019-04-10T19:54:51.319Z,69.17
2019-04-10T19:57:22.345Z,75.47
2019-04-10T19:59:54.246Z,66.07
2019-04-10T20:02:25.056Z,70.37
2019-04-10T20:04:56.979Z,72.93
2019-04-10T20:07:28.827Z,66.37
2019-04-10T20:10:02.047Z,73.17
2019-04-10T20:12:32.936Z,75.53
2019-04-10T20:15:06.433Z,61.43
2019-04-10T20:17:37.890Z,61.47
2019-04-10T20:20:08.459Z,58.30
2019-04-10T20:22:39.173Z,65.47
2019-04-10T20:25:12.420Z,51.20
2019-04-10T20:27:43.012Z,63.43
2019-04-10T20:30:13.869Z,50.60
2019-04-10T20:32:44.735Z,101.73
2019-04-10T20:35:16.143Z,78.87
2019-04-10T20:37:47.136Z,61.87
2019-04-10T20:40:19.203Z,57.20
2019-04-10T20:42:50.838Z,49.63
2019-04-10T20:45:21.847Z,61.70
2019-04-10T20:47:52.298Z,54.27
2019-04-10T20:50:23.800Z,57.03
2019-04-10T20:52:55.711Z,43.77
2019-04-10T20:55:27.927Z,50.90
2019-04-10T20:57:59.688Z,59.83
2019-04-10T21:00:35.031Z,46.27
2019-04-10T21:03:05.755Z,48.83
2019-04-10T21:05:36.217Z,49.40
2019-04-10T21:08:07.436Z,47.87
2019-04-10T21:10:38.654Z,47.37
2019-04-10T21:13:09.240Z,45.37
2019-04-10T21:15:39.624Z,49.20
2019-04-10T21:18:11.075Z,44.13
2019-04-10T21:20:41.519Z,41.43
2019-04-10T21:23:13.053Z,39.90
2019-04-10T21:25:44.287Z,46.97
2019-04-10T21:28:14.824Z,44.03
2019-04-10T21:30:49.369Z,47.63
2019-04-10T21:33:30.333Z,48.50
2019-04-10T21:36:01.863Z,44.07
2019-04-10T21:38:32.374Z,39.93
2019-04-10T21:41:04.874Z,48.20
2019-04-10T21:43:34.893Z,37.97
2019-04-10T21:46:06.111Z,36.30
2019-04-10T21:48:37.218Z,41.30
2019-04-10T21:51:08.742Z,39.23
2019-04-10T21:53:39.290Z,42.27
2019-04-10T21:56:10.459Z,40.40
2019-04-10T21:58:41.002Z,43.37
2019-04-10T22:01:13.488Z,39.83
2019-04-10T22:03:44.205Z,42.67
2019-04-10T22:06:25.970Z,43.57
2019-04-10T22:08:58.317Z,46.87
2019-04-10T22:11:30.825Z,47.07
2019-04-10T22:14:02.211Z,49.83
2019-04-10T22:16:33.697Z,50.07
2019-04-10T22:19:04.308Z,47.50
2019-04-10T22:21:34.702Z,47.20
2019-04-10T22:24:05.233Z,57.10
2019-04-10T22:26:36.246Z,49.93
2019-04-10T22:29:07.692Z,54.73
2019-04-10T22:31:39.523Z,56.67
2019-04-10T22:34:10.402Z,52.47
2019-04-10T22:36:41.922Z,44.63
2019-04-10T22:39:14.609Z,47.97
2019-04-10T22:41:46.215Z,45.50
2019-04-10T22:44:17.569Z,46.93
2019-04-10T22:46:48.087Z,43.70
2019-04-10T22:49:18.529Z,66.30
2019-04-10T22:51:49.650Z,53.07
2019-04-10T22:54:20.105Z,52.43
2019-04-10T22:56:52.281Z,47.60
2019-04-10T22:59:22.807Z,53.60
2019-04-10T23:02:03.424Z,46.80
2019-04-10T23:04:26.459Z,43.87
2019-04-10T23:06:57.700Z,40.90
2019-04-10T23:09:28.546Z,44.63
2019-04-10T23:12:00.131Z,42.23
2019-04-10T23:14:31.142Z,37.77
2019-04-10T23:17:04.445Z,38.00
2019-04-10T23:19:34.881Z,42.00
2019-04-10T23:22:09.401Z,34.77
2019-04-10T23:24:40.088Z,36.37
2019-04-10T23:27:11.478Z,32.70
2019-04-10T23:29:41.987Z,33.13
2019-04-10T23:32:13.255Z,30.37
2019-04-10T23:34:43.759Z,37.57
2019-04-10T23:37:15.016Z,30.70
2019-04-10T23:39:46.164Z,32.70
2019-04-10T23:42:16.636Z,29.27
2019-04-10T23:44:47.075Z,30.70
2019-04-10T23:47:18.123Z,31.30
2019-04-10T23:49:50.127Z,30.67
2019-04-10T23:52:20.518Z,29.37
2019-04-10T23:54:51.362Z,28.63
2019-04-10T23:57:25.302Z,27.13
2019-04-10T23:59:57.180Z,33.23
